createdAt,value
2017-09-12T00:00:12.734Z,21.73
2017-09-12T00:01:13.369Z,21.72
2017-09-12T00:02:14.004Z,21.62
2017-09-12T00:03:14.641Z,21.54
2017-09-12T00:04:15.279Z,21.62
2017-09-12T00:05:16.118Z,21.55
2017-09-12T00:06:16.754Z,21.70
2017-09-12T00:07:17.394Z,21.61
2017-09-12T00:08:18.029Z,21.62
2017-09-12T00:09:18.664Z,21.58
2017-09-12T00:10:19.300Z,21.58
2017-09-12T00:11:19.943Z,21.57
2017-09-12T00:12:20.628Z,21.57
2017-09-12T00:13:21.417Z,21.61
2017-09-12T00:14:22.054Z,21.61
2017-09-12T00:15:22.693Z,21.57
2017-09-12T00:16:23.328Z,21.58
2017-09-12T00:17:23.963Z,21.60
2017-09-12T00:18:24.603Z,21.58
2017-09-12T00:19:25.239Z,21.58
2017-09-12T00:20:25.874Z,21.52
2017-09-12T00:21:26.764Z,21.55
2017-09-12T00:22:27.400Z,21.52
2017-09-12T00:23:28.037Z,21.58
2017-09-12T00:24:28.675Z,21.55
2017-09-12T00:25:29.312Z,21.57
2017-09-12T00:26:29.949Z,21.50
2017-09-12T00:27:30.586Z,21.51
2017-09-12T00:28:31.224Z,21.48
2017-09-12T00:29:32.058Z,21.51
2017-09-12T00:30:32.698Z,21.45
2017-09-12T00:31:33.334Z,21.52
2017-09-12T00:32:33.970Z,21.45
2017-09-12T00:33:34.608Z,21.45
2017-09-12T00:34:35.246Z,21.39
2017-09-12T00:35:35.882Z,21.42
2017-09-12T00:36:36.517Z,21.40
2017-09-12T00:37:37.356Z,21.45
2017-09-12T00:38:37.992Z,21.42
2017-09-12T00:39:38.632Z,21.40
2017-09-12T00:40:39.271Z,21.39
2017-09-12T00:41:39.906Z,21.43
2017-09-12T00:42:40.543Z,21.30
2017-09-12T00:43:41.180Z,21.32
2017-09-12T00:44:41.815Z,21.37
2017-09-12T00:45:42.502Z,21.39
2017-09-12T00:46:43.287Z,21.42
2017-09-12T00:47:43.924Z,21.33
2017-09-12T00:48:44.560Z,21.43
2017-09-12T00:49:45.197Z,21.36
2017-09-12T00:50:45.833Z,21.36
2017-09-12T00:51:46.471Z,21.36
2017-09-12T00:52:47.106Z,21.33
2017-09-12T00:53:47.742Z,21.37
2017-09-12T00:54:48.578Z,21.36
2017-09-12T00:55:49.216Z,21.35
2017-09-12T00:56:49.852Z,21.42
2017-09-12T00:57:50.489Z,21.39
2017-09-12T00:58:51.125Z,21.32
2017-09-12T00:59:51.761Z,21.36
2017-09-12T01:00:52.396Z,21.33
2017-09-12T01:01:53.034Z,21.35
2017-09-12T01:02:53.820Z,21.32
2017-09-12T01:03:54.458Z,21.36
2017-09-12T01:04:55.094Z,21.30
2017-09-12T01:05:55.732Z,21.29
2017-09-12T01:06:56.367Z,21.32
2017-09-12T01:07:57.007Z,21.39
2017-09-12T01:08:57.642Z,21.33
2017-09-12T01:09:58.280Z,21.32
2017-09-12T01:10:59.119Z,21.35
2017-09-12T01:11:59.753Z,21.25
2017-09-12T01:13:02.641Z,21.24
2017-09-12T01:14:03.279Z,21.29
2017-09-12T01:15:03.917Z,21.25
2017-09-12T01:16:04.755Z,21.24
2017-09-12T01:17:05.392Z,21.18
2017-09-12T01:18:06.031Z,21.29
2017-09-12T01:19:06.666Z,21.32
2017-09-12T01:20:07.304Z,21.24
2017-09-12T01:21:07.939Z,21.32
2017-09-12T01:22:08.576Z,21.21
2017-09-12T01:23:09.212Z,21.35
2017-09-12T01:24:09.849Z,21.24
2017-09-12T01:25:10.636Z,21.22
2017-09-12T01:26:11.271Z,21.29
2017-09-12T01:27:11.909Z,21.32
2017-09-12T01:28:12.545Z,21.21
2017-09-12T01:29:13.183Z,21.20
2017-09-12T01:30:13.822Z,21.25
2017-09-12T01:31:14.454Z,21.24
2017-09-12T01:32:15.093Z,21.22
2017-09-12T01:33:15.928Z,21.09
2017-09-12T01:34:16.565Z,21.14
2017-09-12T01:35:17.202Z,21.18
2017-09-12T01:36:17.838Z,21.24
2017-09-12T01:37:18.477Z,21.24
2017-09-12T01:38:19.116Z,21.20
2017-09-12T01:39:19.752Z,21.32
2017-09-12T01:40:20.388Z,21.20
2017-09-12T01:41:21.227Z,21.20
2017-09-12T01:42:21.874Z,21.21
2017-09-12T01:43:22.509Z,21.18
2017-09-12T01:44:23.146Z,21.20
2017-09-12T01:45:23.786Z,21.17
2017-09-12T01:46:24.417Z,21.21
2017-09-12T01:47:25.056Z,21.18
2017-09-12T01:48:25.690Z,21.22
2017-09-12T01:49:26.730Z,21.17
2017-09-12T01:50:27.365Z,21.18
2017-09-12T01:51:28.001Z,21.20
2017-09-12T01:52:28.639Z,21.17
2017-09-12T01:53:29.277Z,21.21
2017-09-12T01:54:29.909Z,21.18
2017-09-12T01:55:30.545Z,21.21
2017-09-12T01:56:31.186Z,21.22
2017-09-12T01:57:31.818Z,21.17
2017-09-12T01:58:32.658Z,21.18
2017-09-12T01:59:33.294Z,21.18
2017-09-12T02:00:33.930Z,21.14
2017-09-12T02:01:34.567Z,21.14
2017-09-12T02:02:35.205Z,21.18
2017-09-12T02:03:35.839Z,21.18
2017-09-12T02:04:36.478Z,21.18
2017-09-12T02:05:37.115Z,21.11
2017-09-12T02:06:37.899Z,21.15
2017-09-12T02:07:38.535Z,21.09
2017-09-12T02:08:39.170Z,21.12
2017-09-12T02:09:39.808Z,21.14
2017-09-12T02:10:40.446Z,21.15
2017-09-12T02:11:41.082Z,21.15
2017-09-12T02:12:41.716Z,21.15
2017-09-12T02:13:42.354Z,21.17
2017-09-12T02:14:43.292Z,21.15
2017-09-12T02:15:43.926Z,21.12
2017-09-12T02:16:44.561Z,21.17
2017-09-12T02:17:45.200Z,21.18
2017-09-12T02:18:45.836Z,21.09
2017-09-12T02:19:46.472Z,21.15
2017-09-12T02:20:47.112Z,21.20
2017-09-12T02:21:47.800Z,21.11
2017-09-12T02:22:48.637Z,21.15
2017-09-12T02:23:49.277Z,21.14
2017-09-12T02:24:49.907Z,21.07
2017-09-12T02:25:50.549Z,21.12
2017-09-12T02:26:51.185Z,21.12
2017-09-12T02:27:51.822Z,21.09
2017-09-12T02:28:52.455Z,21.15
2017-09-12T02:29:53.092Z,21.18
2017-09-12T02:30:53.929Z,21.12
2017-09-12T02:31:54.564Z,21.14
2017-09-12T02:32:55.201Z,21.15
2017-09-12T02:33:55.836Z,21.11
2017-09-12T02:34:56.473Z,21.09
2017-09-12T02:35:57.109Z,21.12
2017-09-12T02:36:57.745Z,21.15
2017-09-12T02:37:58.384Z,21.09
2017-09-12T02:38:59.019Z,21.09
2017-09-12T02:39:59.859Z,21.09
2017-09-12T02:41:00.495Z,21.12
2017-09-12T02:42:01.130Z,21.09
2017-09-12T02:43:01.767Z,21.09
2017-09-12T02:44:02.402Z,21.07
2017-09-12T02:45:03.037Z,21.02
2017-09-12T02:46:03.674Z,21.09
2017-09-12T02:47:04.312Z,21.02
2017-09-12T02:48:05.099Z,21.03
2017-09-12T02:49:05.736Z,21.06
2017-09-12T02:50:06.374Z,21.09
2017-09-12T02:51:07.008Z,21.11
2017-09-12T02:52:07.644Z,21.07
2017-09-12T02:53:08.280Z,21.02
2017-09-12T02:54:08.916Z,21.03
2017-09-12T02:55:09.560Z,21.06
2017-09-12T02:56:10.390Z,21.05
2017-09-12T02:57:11.027Z,21.05
2017-09-12T02:58:11.663Z,21.02
2017-09-12T02:59:12.301Z,21.00
2017-09-12T03:00:12.939Z,21.06
2017-09-12T03:01:13.575Z,21.00
2017-09-12T03:02:14.213Z,21.06
2017-09-12T03:03:14.850Z,21.02
2017-09-12T03:04:15.634Z,21.00
2017-09-12T03:05:16.269Z,21.05
2017-09-12T03:06:16.906Z,21.03
2017-09-12T03:07:17.541Z,21.06
2017-09-12T03:08:18.179Z,20.99
2017-09-12T03:09:18.813Z,21.02
2017-09-12T03:10:19.449Z,21.06
2017-09-12T03:11:20.087Z,20.97
2017-09-12T03:12:20.725Z,20.97
2017-09-12T03:13:21.812Z,20.97
2017-09-12T03:14:22.445Z,20.99
2017-09-12T03:15:23.083Z,20.99
2017-09-12T03:16:23.720Z,20.99
2017-09-12T03:17:24.356Z,20.97
2017-09-12T03:18:24.993Z,20.90
2017-09-12T03:19:25.628Z,21.00
2017-09-12T03:20:26.262Z,20.99
2017-09-12T03:21:27.300Z,20.96
2017-09-12T03:22:27.938Z,21.00
2017-09-12T03:23:28.577Z,20.95
2017-09-12T03:24:29.214Z,20.97
2017-09-12T03:25:29.851Z,20.96
2017-09-12T03:26:30.489Z,20.99
2017-09-12T03:27:31.126Z,20.92
2017-09-12T03:28:31.759Z,20.95
2017-09-12T03:29:32.796Z,20.96
2017-09-12T03:30:33.432Z,20.99
2017-09-12T03:31:34.068Z,20.96
2017-09-12T03:32:34.704Z,20.96
2017-09-12T03:33:35.342Z,21.00
2017-09-12T03:34:35.981Z,20.87
2017-09-12T03:35:36.618Z,20.92
2017-09-12T03:36:37.255Z,20.93
2017-09-12T03:37:38.444Z,20.92
2017-09-12T03:38:39.078Z,20.87
2017-09-12T03:39:39.665Z,20.95
2017-09-12T03:40:40.304Z,20.97
2017-09-12T03:41:40.938Z,20.85
2017-09-12T03:42:41.574Z,20.82
2017-09-12T03:43:42.208Z,20.93
2017-09-12T03:44:42.845Z,20.85
2017-09-12T03:45:43.983Z,20.87
2017-09-12T03:46:44.617Z,20.85
2017-09-12T03:47:45.256Z,20.95
2017-09-12T03:48:45.890Z,20.93
2017-09-12T03:49:46.526Z,20.96
2017-09-12T03:50:47.165Z,20.87
2017-09-12T03:51:47.803Z,20.88
2017-09-12T03:52:48.437Z,20.93
2017-09-12T03:53:49.074Z,20.92
2017-09-12T03:54:50.109Z,20.97
2017-09-12T03:55:50.744Z,20.88
2017-09-12T03:56:51.381Z,20.88
2017-09-12T03:57:52.017Z,20.87
2017-09-12T03:58:52.654Z,20.87
2017-09-12T03:59:53.291Z,20.82
2017-09-12T04:00:53.926Z,20.93
2017-09-12T04:01:54.570Z,20.87
2017-09-12T04:02:55.654Z,20.85
2017-09-12T04:03:56.291Z,20.84
2017-09-12T04:04:56.926Z,20.80
2017-09-12T04:05:57.564Z,20.78
2017-09-12T04:06:58.200Z,20.77
2017-09-12T04:07:58.839Z,20.78
2017-09-12T04:08:59.474Z,20.74
2017-09-12T04:10:00.112Z,20.75
2017-09-12T04:11:01.048Z,20.77
2017-09-12T04:12:01.697Z,20.82
2017-09-12T04:13:02.331Z,20.72
2017-09-12T04:14:02.970Z,20.74
2017-09-12T04:15:03.604Z,20.80
2017-09-12T04:16:04.243Z,20.81
2017-09-12T04:17:04.879Z,20.74
2017-09-12T04:18:05.515Z,20.78
2017-09-12T04:19:06.600Z,20.75
2017-09-12T04:20:07.240Z,20.81
2017-09-12T04:21:07.873Z,20.77
2017-09-12T04:22:08.512Z,20.80
2017-09-12T04:23:09.147Z,20.77
2017-09-12T04:24:09.783Z,20.78
2017-09-12T04:25:10.426Z,20.74
2017-09-12T04:26:11.057Z,20.81
2017-09-12T04:27:12.097Z,20.70
2017-09-12T04:28:12.730Z,20.72
2017-09-12T04:29:13.368Z,20.78
2017-09-12T04:30:14.005Z,20.74
2017-09-12T04:31:14.641Z,20.70
2017-09-12T04:32:15.278Z,20.70
2017-09-12T04:33:15.914Z,20.69
2017-09-12T04:34:16.551Z,20.70
2017-09-12T04:35:17.191Z,20.72
2017-09-12T04:36:18.225Z,20.62
2017-09-12T04:37:18.861Z,20.75
2017-09-12T04:38:19.498Z,20.60
2017-09-12T04:39:20.135Z,20.63
2017-09-12T04:40:20.773Z,20.63
2017-09-12T04:41:21.409Z,20.65
2017-09-12T04:42:22.045Z,20.63
2017-09-12T04:43:22.684Z,20.66
2017-09-12T04:44:23.721Z,20.58
2017-09-12T04:45:24.359Z,20.69
2017-09-12T04:46:24.993Z,20.62
2017-09-12T04:47:25.627Z,20.62
2017-09-12T04:48:26.263Z,20.65
2017-09-12T04:49:26.901Z,20.63
2017-09-12T04:50:27.537Z,20.62
2017-09-12T04:51:28.173Z,20.62
2017-09-12T04:52:29.161Z,20.63
2017-09-12T04:53:29.798Z,20.65
2017-09-12T04:54:30.432Z,20.62
2017-09-12T04:55:31.067Z,20.65
2017-09-12T04:56:31.702Z,20.63
2017-09-12T04:57:32.341Z,20.62
2017-09-12T04:58:32.974Z,20.58
2017-09-12T04:59:33.614Z,20.66
2017-09-12T05:00:34.747Z,20.63
2017-09-12T05:01:35.383Z,20.59
2017-09-12T05:02:36.020Z,20.63
2017-09-12T05:03:36.655Z,20.62
2017-09-12T05:04:37.294Z,20.58
2017-09-12T05:05:37.931Z,20.60
2017-09-12T05:06:38.565Z,20.60
2017-09-12T05:07:39.204Z,20.63
2017-09-12T05:08:39.839Z,20.65
2017-09-12T05:09:40.825Z,20.56
2017-09-12T05:10:41.459Z,20.60
2017-09-12T05:11:42.102Z,20.60
2017-09-12T05:12:42.789Z,20.60
2017-09-12T05:13:43.424Z,20.60
2017-09-12T05:14:44.066Z,20.60
2017-09-12T05:15:44.695Z,20.60
2017-09-12T05:16:45.331Z,20.56
2017-09-12T05:17:46.368Z,20.62
2017-09-12T05:18:47.004Z,20.59
2017-09-12T05:19:47.639Z,20.60
2017-09-12T05:20:48.274Z,20.62
2017-09-12T05:21:48.910Z,20.63
2017-09-12T05:22:49.551Z,20.59
2017-09-12T05:23:50.182Z,20.63
2017-09-12T05:24:50.820Z,20.56
2017-09-12T05:25:51.757Z,20.58
2017-09-12T05:26:52.396Z,20.59
2017-09-12T05:27:53.031Z,20.63
2017-09-12T05:28:53.668Z,20.56
2017-09-12T05:29:54.301Z,20.55
2017-09-12T05:30:54.937Z,20.52
2017-09-12T05:31:55.575Z,20.52
2017-09-12T05:32:56.222Z,20.65
2017-09-12T05:33:57.099Z,20.58
2017-09-12T05:34:57.734Z,20.58
2017-09-12T05:35:58.368Z,20.62
2017-09-12T05:36:59.005Z,20.60
2017-09-12T05:37:59.643Z,20.62
2017-09-12T05:39:00.280Z,20.59
2017-09-12T05:40:00.916Z,20.52
2017-09-12T05:41:01.551Z,20.52
2017-09-12T05:42:02.538Z,20.51
2017-09-12T05:43:03.176Z,20.48
2017-09-12T05:44:03.817Z,20.56
2017-09-12T05:45:04.446Z,20.50
2017-09-12T05:46:05.084Z,20.47
2017-09-12T05:47:05.725Z,20.48
2017-09-12T05:48:06.360Z,20.56
2017-09-12T05:49:06.995Z,20.50
2017-09-12T05:50:07.632Z,20.43
2017-09-12T05:51:08.515Z,20.41
2017-09-12T05:52:09.151Z,20.44
2017-09-12T05:53:09.788Z,20.44
2017-09-12T05:54:10.426Z,20.41
2017-09-12T05:55:11.066Z,20.47
2017-09-12T05:56:11.751Z,20.48
2017-09-12T05:57:12.389Z,20.56
2017-09-12T05:58:13.023Z,20.50
2017-09-12T05:59:13.809Z,20.40
2017-09-12T06:00:14.447Z,20.44
2017-09-12T06:01:15.081Z,20.51
2017-09-12T06:02:15.719Z,20.50
2017-09-12T06:03:16.359Z,20.47
2017-09-12T06:04:16.995Z,20.44
2017-09-12T06:05:17.629Z,20.44
2017-09-12T06:06:18.264Z,20.41
2017-09-12T06:07:19.100Z,20.43
2017-09-12T06:08:19.738Z,20.51
2017-09-12T06:09:20.375Z,20.41
2017-09-12T06:10:21.013Z,20.50
2017-09-12T06:11:21.646Z,20.48
2017-09-12T06:12:22.281Z,20.59
2017-09-12T06:13:22.916Z,20.41
2017-09-12T06:14:23.557Z,20.51
2017-09-12T06:15:24.339Z,20.43
2017-09-12T06:16:24.978Z,20.50
2017-09-12T06:17:25.613Z,20.41
2017-09-12T06:18:26.250Z,20.50
2017-09-12T06:19:26.888Z,20.47
2017-09-12T06:20:27.525Z,20.44
2017-09-12T06:21:28.160Z,20.51
2017-09-12T06:22:28.795Z,20.41
2017-09-12T06:23:29.432Z,20.40
2017-09-12T06:24:30.269Z,20.40
2017-09-12T06:25:30.905Z,20.50
2017-09-12T06:26:31.541Z,20.43
2017-09-12T06:27:32.177Z,20.43
2017-09-12T06:28:32.812Z,20.41
2017-09-12T06:29:33.450Z,20.44
2017-09-12T06:30:34.085Z,20.48
2017-09-12T06:31:34.724Z,20.43
2017-09-12T06:32:35.563Z,20.43
2017-09-12T06:33:36.199Z,20.40
2017-09-12T06:34:36.837Z,20.44
2017-09-12T06:35:37.479Z,20.48
2017-09-12T06:36:38.108Z,20.48
2017-09-12T06:37:38.745Z,20.39
2017-09-12T06:38:39.381Z,20.43
2017-09-12T06:39:40.015Z,20.48
2017-09-12T06:40:40.919Z,20.43
2017-09-12T06:41:41.548Z,20.44
2017-09-12T06:42:42.185Z,20.50
2017-09-12T06:43:42.821Z,20.40
2017-09-12T06:44:43.456Z,20.44
2017-09-12T06:45:44.090Z,20.47
2017-09-12T06:46:44.727Z,20.41
2017-09-12T06:47:45.363Z,20.43
2017-09-12T06:48:46.202Z,20.44
2017-09-12T06:49:46.842Z,20.43
2017-09-12T06:50:47.478Z,20.51
2017-09-12T06:51:48.169Z,20.43
2017-09-12T06:52:48.797Z,20.48
2017-09-12T06:53:49.433Z,20.50
2017-09-12T06:54:50.082Z,20.41
2017-09-12T06:55:50.705Z,20.44
2017-09-12T06:56:51.492Z,20.50
2017-09-12T06:57:52.139Z,20.50
2017-09-12T06:58:52.764Z,20.44
2017-09-12T06:59:53.400Z,20.47
2017-09-12T07:00:54.034Z,20.44
2017-09-12T07:01:54.673Z,20.40
2017-09-12T07:02:55.306Z,20.43
2017-09-12T07:03:55.942Z,20.48
2017-09-12T07:04:56.579Z,20.48
2017-09-12T07:05:57.469Z,20.50
2017-09-12T07:06:58.103Z,20.40
2017-09-12T07:07:58.739Z,20.51
2017-09-12T07:08:59.374Z,20.50
2017-09-12T07:10:00.012Z,20.41
2017-09-12T07:11:00.646Z,20.47
2017-09-12T07:12:01.286Z,20.44
2017-09-12T07:13:01.922Z,20.50
2017-09-12T07:14:02.706Z,20.50
2017-09-12T07:15:03.344Z,20.41
2017-09-12T07:16:03.982Z,20.51
2017-09-12T07:17:04.616Z,20.50
2017-09-12T07:18:05.254Z,20.50
2017-09-12T07:19:05.888Z,20.41
2017-09-12T07:20:06.525Z,20.51
2017-09-12T07:21:07.162Z,20.52
2017-09-12T07:22:07.998Z,20.41
2017-09-12T07:23:08.634Z,20.50
2017-09-12T07:24:09.269Z,20.55
2017-09-12T07:25:09.905Z,20.43
2017-09-12T07:26:10.540Z,20.41
2017-09-12T07:27:11.177Z,20.41
2017-09-12T07:28:11.810Z,20.44
2017-09-12T07:29:12.447Z,20.55
2017-09-12T07:30:13.281Z,20.55
2017-09-12T07:31:13.920Z,20.55
2017-09-12T07:32:14.560Z,20.59
2017-09-12T07:33:15.190Z,20.56
2017-09-12T07:34:15.829Z,20.55
2017-09-12T07:35:16.464Z,20.52
2017-09-12T07:36:17.099Z,20.52
2017-09-12T07:37:17.735Z,20.50
2017-09-12T07:38:18.374Z,20.50
2017-09-12T07:39:19.108Z,20.55
2017-09-12T07:40:19.744Z,20.55
2017-09-12T07:41:20.380Z,20.47
2017-09-12T07:42:21.018Z,20.55
2017-09-12T07:43:21.654Z,20.43
2017-09-12T07:44:22.291Z,20.51
2017-09-12T07:45:22.929Z,20.52
2017-09-12T07:46:23.564Z,20.50
2017-09-12T07:47:24.397Z,20.55
2017-09-12T07:48:25.032Z,20.48
2017-09-12T07:49:25.668Z,20.47
2017-09-12T07:50:26.306Z,20.43
2017-09-12T07:51:26.945Z,20.39
2017-09-12T07:52:27.583Z,20.36
2017-09-12T07:53:28.218Z,20.31
2017-09-12T07:54:28.857Z,20.29
2017-09-12T07:55:29.549Z,20.18
2017-09-12T07:56:30.136Z,20.18
2017-09-12T07:57:30.769Z,20.18
2017-09-12T07:58:31.360Z,20.00
2017-09-12T07:59:31.994Z,20.09
2017-09-12T08:00:32.632Z,20.04
2017-09-12T08:01:33.267Z,20.03
2017-09-12T08:02:33.903Z,20.06
2017-09-12T08:03:34.742Z,19.96
2017-09-12T08:04:35.377Z,20.00
2017-09-12T08:05:36.017Z,20.03
2017-09-12T08:06:36.649Z,19.95
2017-09-12T08:07:37.240Z,20.02
2017-09-12T08:08:37.875Z,20.02
2017-09-12T08:09:38.510Z,20.06
2017-09-12T08:10:39.197Z,20.00
2017-09-12T08:11:40.034Z,20.07
2017-09-12T08:12:40.671Z,20.10
2017-09-12T08:13:41.306Z,20.03
2017-09-12T08:14:41.942Z,20.04
2017-09-12T08:15:42.578Z,20.06
2017-09-12T08:16:43.215Z,20.03
2017-09-12T08:17:43.852Z,20.07
2017-09-12T08:18:44.489Z,20.07
2017-09-12T08:19:45.125Z,20.00
2017-09-12T08:20:45.961Z,20.02
2017-09-12T08:21:46.600Z,20.02
2017-09-12T08:22:47.239Z,20.02
2017-09-12T08:23:47.874Z,19.99
2017-09-12T08:24:48.511Z,20.06
2017-09-12T08:25:49.146Z,20.10
2017-09-12T08:26:49.784Z,20.02
2017-09-12T08:27:50.422Z,19.99
2017-09-12T08:28:51.208Z,20.03
2017-09-12T08:29:51.848Z,20.14
2017-09-12T08:30:52.633Z,20.18
2017-09-12T08:31:53.272Z,20.16
2017-09-12T08:32:53.909Z,20.14
2017-09-12T08:33:54.551Z,20.22
2017-09-12T08:34:55.179Z,20.18
2017-09-12T08:35:55.813Z,20.18
2017-09-12T08:36:56.452Z,20.18
2017-09-12T08:37:57.087Z,20.25
2017-09-12T08:38:57.925Z,20.22
2017-09-12T08:39:58.563Z,20.24
2017-09-12T08:40:59.198Z,20.25
2017-09-12T08:41:59.834Z,20.21
2017-09-12T08:43:00.471Z,20.29
2017-09-12T08:44:01.110Z,20.29
2017-09-12T08:45:01.748Z,20.26
2017-09-12T08:46:02.385Z,20.28
2017-09-12T08:47:03.018Z,20.31
2017-09-12T08:48:03.957Z,20.32
2017-09-12T08:49:04.593Z,20.39
2017-09-12T08:50:05.231Z,20.43
2017-09-12T08:51:05.869Z,20.43
2017-09-12T08:52:06.556Z,20.43
2017-09-12T08:53:07.191Z,20.43
2017-09-12T08:54:07.826Z,20.55
2017-09-12T08:55:08.464Z,20.59
2017-09-12T08:56:09.100Z,20.60
2017-09-12T08:57:09.884Z,20.67
2017-09-12T08:58:10.521Z,20.63
2017-09-12T08:59:11.105Z,20.58
2017-09-12T09:00:11.745Z,20.62
2017-09-12T09:01:12.380Z,20.63
2017-09-12T09:02:13.017Z,20.60
2017-09-12T09:03:13.653Z,20.60
2017-09-12T09:04:14.288Z,20.70
2017-09-12T09:05:15.126Z,20.70
2017-09-12T09:06:15.762Z,20.78
2017-09-12T09:07:16.398Z,20.81
2017-09-12T09:08:17.036Z,20.77
2017-09-12T09:09:17.670Z,20.72
2017-09-12T09:10:18.309Z,20.80
2017-09-12T09:11:18.943Z,20.81
2017-09-12T09:12:19.582Z,20.88
2017-09-12T09:13:20.518Z,20.88
2017-09-12T09:14:21.156Z,20.90
2017-09-12T09:15:21.790Z,20.88
2017-09-12T09:16:22.426Z,20.90
2017-09-12T09:17:23.064Z,20.96
2017-09-12T09:18:23.753Z,21.02
2017-09-12T09:19:24.388Z,20.97
2017-09-12T09:20:25.026Z,20.99
2017-09-12T09:21:25.864Z,20.97
2017-09-12T09:22:26.504Z,20.97
2017-09-12T09:23:27.139Z,21.07
2017-09-12T09:24:27.776Z,21.05
2017-09-12T09:25:28.411Z,21.05
2017-09-12T09:26:29.049Z,21.11
2017-09-12T09:27:29.683Z,21.15
2017-09-12T09:28:30.321Z,21.14
2017-09-12T09:29:30.957Z,21.14
2017-09-12T09:30:31.795Z,21.20
2017-09-12T09:31:32.434Z,21.17
2017-09-12T09:32:33.069Z,21.09
2017-09-12T09:33:33.707Z,21.12
2017-09-12T09:34:34.350Z,21.15
2017-09-12T09:35:34.984Z,21.20
2017-09-12T09:36:35.617Z,21.21
2017-09-12T09:37:36.205Z,21.25
2017-09-12T09:38:36.990Z,21.27
2017-09-12T09:39:37.627Z,21.30
2017-09-12T09:40:38.266Z,21.33
2017-09-12T09:41:38.904Z,21.36
2017-09-12T09:42:39.538Z,21.32
2017-09-12T09:43:40.174Z,21.36
2017-09-12T09:44:40.812Z,21.39
2017-09-12T09:45:41.449Z,21.39
2017-09-12T09:46:42.283Z,21.46
2017-09-12T09:47:42.922Z,21.51
2017-09-12T09:48:43.559Z,21.52
2017-09-12T09:49:44.197Z,21.57
2017-09-12T09:50:44.831Z,21.52
2017-09-12T09:51:45.467Z,21.60
2017-09-12T09:52:46.107Z,21.61
2017-09-12T09:53:46.741Z,21.64
2017-09-12T09:54:47.686Z,21.70
2017-09-12T09:55:48.317Z,21.67
2017-09-12T09:56:48.955Z,21.70
2017-09-12T09:57:49.593Z,21.75
2017-09-12T09:58:50.228Z,21.73
2017-09-12T09:59:50.865Z,21.83
2017-09-12T10:00:51.503Z,21.89
2017-09-12T10:01:52.198Z,21.87
2017-09-12T10:02:53.035Z,21.95
2017-09-12T10:03:53.672Z,21.91
2017-09-12T10:04:54.315Z,21.89
2017-09-12T10:05:54.950Z,21.91
2017-09-12T10:06:55.586Z,22.02
2017-09-12T10:07:56.223Z,21.96
2017-09-12T10:08:56.860Z,21.95
2017-09-12T10:09:57.497Z,21.96
2017-09-12T10:10:58.138Z,21.89
2017-09-12T10:11:58.973Z,22.04
2017-09-12T10:12:59.610Z,21.99
2017-09-12T10:14:00.250Z,22.06
2017-09-12T10:15:00.887Z,22.07
2017-09-12T10:16:01.525Z,22.04
2017-09-12T10:17:02.161Z,22.11
2017-09-12T10:18:02.796Z,22.18
2017-09-12T10:19:03.438Z,22.07
2017-09-12T10:20:04.324Z,22.14
2017-09-12T10:21:04.962Z,22.15
2017-09-12T10:22:05.598Z,22.11
2017-09-12T10:23:06.237Z,22.13
2017-09-12T10:24:06.873Z,22.18
2017-09-12T10:25:07.522Z,22.11
2017-09-12T10:26:08.147Z,22.14
2017-09-12T10:27:08.785Z,22.23
2017-09-12T10:28:09.625Z,22.22
2017-09-12T10:29:10.261Z,22.22
2017-09-12T10:30:10.898Z,22.26
2017-09-12T10:31:11.538Z,22.32
2017-09-12T10:32:12.173Z,22.25
2017-09-12T10:33:12.861Z,22.33
2017-09-12T10:34:13.554Z,22.32
2017-09-12T10:35:14.189Z,22.36
2017-09-12T10:36:15.027Z,22.43
2017-09-12T10:37:15.663Z,22.45
2017-09-12T10:38:16.299Z,22.47
2017-09-12T10:39:16.945Z,22.53
2017-09-12T10:40:17.573Z,22.50
2017-09-12T10:41:18.209Z,22.47
2017-09-12T10:42:18.846Z,22.47
2017-09-12T10:43:19.484Z,22.50
2017-09-12T10:44:20.121Z,22.55
2017-09-12T10:45:20.960Z,22.55
2017-09-12T10:46:21.597Z,22.36
2017-09-12T10:47:22.237Z,22.41
2017-09-12T10:48:22.873Z,22.45
2017-09-12T10:49:23.511Z,22.48
2017-09-12T10:50:24.148Z,22.35
2017-09-12T10:51:24.785Z,22.44
2017-09-12T10:52:25.426Z,22.36
2017-09-12T10:53:26.264Z,22.35
2017-09-12T10:54:26.901Z,22.38
2017-09-12T10:55:27.542Z,22.43
2017-09-12T10:56:28.183Z,22.43
2017-09-12T10:57:28.820Z,22.43
2017-09-12T10:58:29.456Z,22.51
2017-09-12T10:59:30.098Z,22.44
2017-09-12T11:00:30.747Z,22.51
2017-09-12T11:01:31.576Z,22.39
2017-09-12T11:02:32.216Z,22.50
2017-09-12T11:03:32.852Z,22.45
2017-09-12T11:04:33.493Z,22.50
2017-09-12T11:05:34.130Z,22.43
2017-09-12T11:06:34.768Z,22.48
2017-09-12T11:07:35.408Z,22.47
2017-09-12T11:08:36.045Z,22.53
2017-09-12T11:09:36.834Z,22.51
2017-09-12T11:10:37.469Z,22.51
2017-09-12T11:11:38.110Z,22.47
2017-09-12T11:12:38.750Z,22.43
2017-09-12T11:13:39.386Z,22.51
2017-09-12T11:14:40.024Z,22.45
2017-09-12T11:15:40.694Z,22.54
2017-09-12T11:16:41.301Z,22.47
2017-09-12T11:17:41.988Z,22.45
2017-09-12T11:18:42.629Z,22.48
2017-09-12T11:19:43.267Z,22.53
2017-09-12T11:20:43.902Z,22.51
2017-09-12T11:21:44.541Z,22.47
2017-09-12T11:22:45.178Z,22.54
2017-09-12T11:23:45.816Z,22.47
2017-09-12T11:24:46.457Z,22.54
2017-09-12T11:25:47.093Z,22.48
2017-09-12T11:26:47.884Z,22.51
2017-09-12T11:27:48.522Z,22.47
2017-09-12T11:28:49.162Z,22.50
2017-09-12T11:29:49.803Z,22.57
2017-09-12T11:30:50.446Z,22.63
2017-09-12T11:31:51.085Z,22.60
2017-09-12T11:32:51.720Z,22.69
2017-09-12T11:33:52.356Z,22.68
2017-09-12T11:34:53.399Z,22.68
2017-09-12T11:35:54.037Z,22.68
2017-09-12T11:36:54.677Z,22.75
2017-09-12T11:37:55.315Z,22.75
2017-09-12T11:38:55.951Z,22.70
2017-09-12T11:39:56.591Z,22.72
2017-09-12T11:40:57.229Z,22.69
2017-09-12T11:41:57.866Z,22.73
2017-09-12T11:42:58.753Z,22.68
2017-09-12T11:43:59.393Z,22.72
2017-09-12T11:45:00.035Z,22.70
2017-09-12T11:46:00.670Z,22.66
2017-09-12T11:47:01.307Z,22.68
2017-09-12T11:48:01.946Z,22.66
2017-09-12T11:49:02.585Z,22.75
2017-09-12T11:50:03.227Z,22.69
2017-09-12T11:51:04.110Z,22.69
2017-09-12T11:52:04.749Z,22.72
2017-09-12T11:53:05.387Z,22.70
2017-09-12T11:54:06.026Z,22.69
2017-09-12T11:55:06.663Z,22.68
2017-09-12T11:56:07.301Z,22.75
2017-09-12T11:57:07.939Z,22.73
2017-09-12T11:58:08.577Z,22.70
2017-09-12T11:59:09.216Z,22.76
2017-09-12T12:00:10.062Z,22.72
2017-09-12T12:01:10.747Z,22.73
2017-09-12T12:02:11.386Z,22.72
2017-09-12T12:03:12.026Z,22.68
2017-09-12T12:04:12.662Z,22.75
2017-09-12T12:05:13.300Z,22.70
2017-09-12T12:06:13.938Z,22.69
2017-09-12T12:07:14.576Z,22.69
2017-09-12T12:08:15.415Z,22.72
2017-09-12T12:09:16.054Z,22.72
2017-09-12T12:10:16.693Z,22.72
2017-09-12T12:11:17.333Z,22.70
2017-09-12T12:12:17.970Z,22.70
2017-09-12T12:13:18.608Z,22.70
2017-09-12T12:14:19.245Z,22.72
2017-09-12T12:15:19.883Z,22.72
2017-09-12T12:16:20.672Z,22.65
2017-09-12T12:17:21.310Z,22.80
2017-09-12T12:18:21.948Z,22.69
2017-09-12T12:19:22.584Z,22.73
2017-09-12T12:20:23.228Z,22.73
2017-09-12T12:21:23.867Z,22.69
2017-09-12T12:22:24.504Z,22.72
2017-09-12T12:23:25.142Z,22.72
2017-09-12T12:24:26.088Z,22.72
2017-09-12T12:25:26.719Z,22.73
2017-09-12T12:26:27.354Z,22.68
2017-09-12T12:27:27.993Z,22.70
2017-09-12T12:28:28.636Z,22.76
2017-09-12T12:29:29.271Z,22.70
2017-09-12T12:30:29.913Z,22.69
2017-09-12T12:31:30.547Z,22.72
2017-09-12T12:32:31.387Z,22.72
2017-09-12T12:33:32.028Z,22.72
2017-09-12T12:34:32.664Z,22.70
2017-09-12T12:35:33.302Z,22.69
2017-09-12T12:36:33.939Z,22.70
2017-09-12T12:37:34.576Z,22.68
2017-09-12T12:38:35.218Z,22.78
2017-09-12T12:39:35.854Z,22.73
2017-09-12T12:40:36.492Z,22.70
2017-09-12T12:41:37.334Z,22.76
2017-09-12T12:42:37.969Z,22.75
2017-09-12T12:43:38.609Z,22.75
2017-09-12T12:44:39.244Z,22.83
2017-09-12T12:45:39.882Z,22.78
2017-09-12T12:46:40.521Z,22.78
2017-09-12T12:47:41.159Z,22.81
2017-09-12T12:48:41.798Z,22.81
2017-09-12T12:49:42.737Z,22.83
2017-09-12T12:50:43.375Z,22.81
2017-09-12T12:51:44.012Z,22.83
2017-09-12T12:52:44.651Z,22.85
2017-09-12T12:53:45.288Z,22.87
2017-09-12T12:54:45.925Z,22.88
2017-09-12T12:55:46.565Z,22.93
2017-09-12T12:56:47.204Z,23.02
2017-09-12T12:57:48.042Z,23.06
2017-09-12T12:58:48.681Z,23.00
2017-09-12T12:59:49.319Z,23.03
2017-09-12T13:00:49.960Z,23.05